sensor_id;sensor_type;location;lat;lon;timestamp;P1;durP1;ratioP1;P2;durP2;ratioP2
60964;SDS011;46834;51.100;6.886;2022-11-03T00:02:04;7.68;;;2.08;;
60964;SDS011;46834;51.100;6.886;2022-11-03T00:04:29;7.90;;;1.92;;
60964;SDS011;46834;51.100;6.886;2022-11-03T00:06:55;7.25;;;2.13;;
60964;SDS011;46834;51.100;6.886;2022-11-03T00:09:21;6.40;;;2.40;;
60964;SDS011;46834;51.100;6.886;2022-11-03T00:11:48;6.25;;;2.08;;
60964;SDS011;46834;51.100;6.886;2022-11-03T00:14:15;6.68;;;2.47;;
60964;SDS011;46834;51.100;6.886;2022-11-03T00:16:42;6.78;;;2.10;;
60964;SDS011;46834;51.100;6.886;2022-11-03T00:19:09;7.75;;;2.33;;
60964;SDS011;46834;51.100;6.886;2022-11-03T00:21:36;7.68;;;1.75;;
60964;SDS011;46834;51.100;6.886;2022-11-03T00:24:02;7.63;;;2.35;;
60964;SDS011;46834;51.100;6.886;2022-11-03T00:26:29;5.63;;;2.10;;
60964;SDS011;46834;51.100;6.886;2022-11-03T00:28:58;6.63;;;2.13;;
60964;SDS011;46834;51.100;6.886;2022-11-03T00:31:27;10.25;;;2.78;;
60964;SDS011;46834;51.100;6.886;2022-11-03T00:33:55;5.22;;;1.98;;
60964;SDS011;46834;51.100;6.886;2022-11-03T00:36:23;6.53;;;2.28;;
60964;SDS011;46834;51.100;6.886;2022-11-03T00:39:14;7.03;;;2.58;;
60964;SDS011;46834;51.100;6.886;2022-11-03T00:41:40;9.88;;;2.50;;
60964;SDS011;46834;51.100;6.886;2022-11-03T00:44:06;8.25;;;2.40;;
60964;SDS011;46834;51.100;6.886;2022-11-03T00:46:34;8.32;;;2.67;;
60964;SDS011;46834;51.100;6.886;2022-11-03T00:49:00;8.25;;;2.63;;
60964;SDS011;46834;51.100;6.886;2022-11-03T00:51:26;9.63;;;2.50;;
60964;SDS011;46834;51.100;6.886;2022-11-03T00:53:58;5.95;;;2.53;;
60964;SDS011;46834;51.100;6.886;2022-11-03T00:56:26;10.88;;;2.95;;
60964;SDS011;46834;51.100;6.886;2022-11-03T00:58:55;5.25;;;2.33;;
60964;SDS011;46834;51.100;6.886;2022-11-03T01:01:24;7.00;;;2.40;;
60964;SDS011;46834;51.100;6.886;2022-11-03T01:03:54;8.82;;;2.55;;
60964;SDS011;46834;51.100;6.886;2022-11-03T01:06:41;8.32;;;3.20;;
60964;SDS011;46834;51.100;6.886;2022-11-03T01:17:09;5.72;;;2.90;;
60964;SDS011;46834;51.100;6.886;2022-11-03T01:19:37;5.15;;;2.30;;
60964;SDS011;46834;51.100;6.886;2022-11-03T01:22:02;8.68;;;2.97;;
60964;SDS011;46834;51.100;6.886;2022-11-03T01:24:29;10.40;;;3.00;;
60964;SDS011;46834;51.100;6.886;2022-11-03T01:26:54;6.10;;;2.78;;
60964;SDS011;46834;51.100;6.886;2022-11-03T01:29:20;5.80;;;2.40;;
60964;SDS011;46834;51.100;6.886;2022-11-03T01:31:46;6.18;;;2.70;;
60964;SDS011;46834;51.100;6.886;2022-11-03T01:34:13;8.75;;;2.92;;
60964;SDS011;46834;51.100;6.886;2022-11-03T01:36:42;6.65;;;2.65;;
60964;SDS011;46834;51.100;6.886;2022-11-03T01:39:12;10.15;;;2.88;;
60964;SDS011;46834;51.100;6.886;2022-11-03T01:41:41;6.45;;;2.72;;
60964;SDS011;46834;51.100;6.886;2022-11-03T01:46:43;8.75;;;2.97;;
60964;SDS011;46834;51.100;6.886;2022-11-03T01:52:21;6.05;;;2.70;;
60964;SDS011;46834;51.100;6.886;2022-11-03T01:55:00;6.38;;;2.58;;
60964;SDS011;46834;51.100;6.886;2022-11-03T01:57:33;7.07;;;2.40;;
60964;SDS011;46834;51.100;6.886;2022-11-03T02:00:05;6.28;;;2.60;;
60964;SDS011;46834;51.100;6.886;2022-11-03T02:02:32;6.80;;;2.42;;
60964;SDS011;46834;51.100;6.886;2022-11-03T02:04:58;7.55;;;2.58;;
60964;SDS011;46834;51.100;6.886;2022-11-03T02:07:29;5.80;;;2.65;;
60964;SDS011;46834;51.100;6.886;2022-11-03T02:10:04;4.55;;;2.75;;
60964;SDS011;46834;51.100;6.886;2022-11-03T02:12:30;8.75;;;2.60;;
60964;SDS011;46834;51.100;6.886;2022-11-03T02:15:04;5.03;;;2.13;;
60964;SDS011;46834;51.100;6.886;2022-11-03T02:17:37;3.78;;;2.08;;
60964;SDS011;46834;51.100;6.886;2022-11-03T02:20:08;4.90;;;2.38;;
60964;SDS011;46834;51.100;6.886;2022-11-03T02:25:36;7.38;;;2.55;;
60964;SDS011;46834;51.100;6.886;2022-11-03T02:28:13;6.13;;;2.47;;
60964;SDS011;46834;51.100;6.886;2022-11-03T02:30:49;4.53;;;2.05;;
60964;SDS011;46834;51.100;6.886;2022-11-03T02:39:55;7.88;;;2.25;;
60964;SDS011;46834;51.100;6.886;2022-11-03T02:42:28;5.00;;;2.05;;
60964;SDS011;46834;51.100;6.886;2022-11-03T02:44:57;6.88;;;2.60;;
60964;SDS011;46834;51.100;6.886;2022-11-03T02:47:27;6.63;;;2.45;;
60964;SDS011;46834;51.100;6.886;2022-11-03T02:49:56;7.35;;;2.70;;
60964;SDS011;46834;51.100;6.886;2022-11-03T02:55:10;3.63;;;2.17;;
60964;SDS011;46834;51.100;6.886;2022-11-03T03:01:02;6.22;;;2.45;;
60964;SDS011;46834;51.100;6.886;2022-11-03T03:03:49;6.32;;;2.30;;
60964;SDS011;46834;51.100;6.886;2022-11-03T03:06:32;5.90;;;2.20;;
60964;SDS011;46834;51.100;6.886;2022-11-03T03:09:15;7.70;;;2.67;;
60964;SDS011;46834;51.100;6.886;2022-11-03T03:11:47;3.85;;;1.90;;
60964;SDS011;46834;51.100;6.886;2022-11-03T03:14:18;5.85;;;2.28;;
60964;SDS011;46834;51.100;6.886;2022-11-03T03:16:59;5.78;;;2.38;;
60964;SDS011;46834;51.100;6.886;2022-11-03T03:22:22;3.65;;;2.00;;
60964;SDS011;46834;51.100;6.886;2022-11-03T03:28:14;5.32;;;2.30;;
60964;SDS011;46834;51.100;6.886;2022-11-03T03:30:49;6.70;;;2.53;;
60964;SDS011;46834;51.100;6.886;2022-11-03T03:33:20;5.75;;;2.35;;
60964;SDS011;46834;51.100;6.886;2022-11-03T03:35:48;6.57;;;2.30;;
60964;SDS011;46834;51.100;6.886;2022-11-03T03:38:18;4.63;;;2.35;;
60964;SDS011;46834;51.100;6.886;2022-11-03T03:40:49;6.35;;;1.88;;
60964;SDS011;46834;51.100;6.886;2022-11-03T03:43:19;5.95;;;2.30;;
60964;SDS011;46834;51.100;6.886;2022-11-03T03:45:47;5.85;;;2.22;;
60964;SDS011;46834;51.100;6.886;2022-11-03T03:48:18;6.43;;;2.20;;
60964;SDS011;46834;51.100;6.886;2022-11-03T03:50:45;8.27;;;2.17;;
60964;SDS011;46834;51.100;6.886;2022-11-03T03:53:14;4.65;;;1.85;;
60964;SDS011;46834;51.100;6.886;2022-11-03T03:55:42;9.90;;;2.45;;
60964;SDS011;46834;51.100;6.886;2022-11-03T03:58:13;7.03;;;2.63;;
60964;SDS011;46834;51.100;6.886;2022-11-03T04:00:40;5.50;;;2.38;;
60964;SDS011;46834;51.100;6.886;2022-11-03T04:03:07;7.13;;;2.45;;
60964;SDS011;46834;51.100;6.886;2022-11-03T04:05:49;4.78;;;2.70;;
60964;SDS011;46834;51.100;6.886;2022-11-03T04:08:17;5.72;;;2.70;;
60964;SDS011;46834;51.100;6.886;2022-11-03T04:10:44;7.18;;;2.78;;
60964;SDS011;46834;51.100;6.886;2022-11-03T04:13:29;6.60;;;2.55;;
60964;SDS011;46834;51.100;6.886;2022-11-03T04:16:15;7.50;;;2.63;;
60964;SDS011;46834;51.100;6.886;2022-11-03T04:19:00;8.07;;;2.92;;
60964;SDS011;46834;51.100;6.886;2022-11-03T04:21:45;6.60;;;2.70;;
60964;SDS011;46834;51.100;6.886;2022-11-03T04:24:29;6.45;;;2.58;;
60964;SDS011;46834;51.100;6.886;2022-11-03T04:26:56;5.47;;;2.47;;
60964;SDS011;46834;51.100;6.886;2022-11-03T04:29:37;7.90;;;2.50;;
60964;SDS011;46834;51.100;6.886;2022-11-03T04:32:06;6.32;;;2.47;;
60964;SDS011;46834;51.100;6.886;2022-11-03T04:34:40;7.03;;;2.60;;
60964;SDS011;46834;51.100;6.886;2022-11-03T04:37:13;6.13;;;2.85;;
60964;SDS011;46834;51.100;6.886;2022-11-03T04:39:40;7.25;;;3.00;;
60964;SDS011;46834;51.100;6.886;2022-11-03T04:42:18;7.13;;;2.75;;
60964;SDS011;46834;51.100;6.886;2022-11-03T04:44:46;5.70;;;2.28;;
60964;SDS011;46834;51.100;6.886;2022-11-03T04:47:14;8.80;;;2.75;;
60964;SDS011;46834;51.100;6.886;2022-11-03T04:49:42;5.97;;;2.22;;
60964;SDS011;46834;51.100;6.886;2022-11-03T04:52:20;7.18;;;2.22;;
60964;SDS011;46834;51.100;6.886;2022-11-03T04:54:48;9.10;;;2.97;;
60964;SDS011;46834;51.100;6.886;2022-11-03T04:57:17;4.97;;;2.20;;
60964;SDS011;46834;51.100;6.886;2022-11-03T04:59:44;4.60;;;2.20;;
60964;SDS011;46834;51.100;6.886;2022-11-03T05:02:16;7.45;;;2.33;;
60964;SDS011;46834;51.100;6.886;2022-11-03T05:04:44;4.50;;;2.10;;
60964;SDS011;46834;51.100;6.886;2022-11-03T05:07:20;7.18;;;2.53;;
60964;SDS011;46834;51.100;6.886;2022-11-03T05:09:58;4.47;;;2.22;;
60964;SDS011;46834;51.100;6.886;2022-11-03T05:12:25;4.85;;;2.05;;
60964;SDS011;46834;51.100;6.886;2022-11-03T05:14:50;5.85;;;2.30;;
60964;SDS011;46834;51.100;6.886;2022-11-03T05:17:24;5.38;;;2.00;;
60964;SDS011;46834;51.100;6.886;2022-11-03T05:19:56;8.18;;;2.47;;
60964;SDS011;46834;51.100;6.886;2022-11-03T05:22:25;7.03;;;2.13;;
60964;SDS011;46834;51.100;6.886;2022-11-03T05:25:01;7.30;;;2.30;;
60964;SDS011;46834;51.100;6.886;2022-11-03T05:27:52;3.60;;;1.90;;
60964;SDS011;46834;51.100;6.886;2022-11-03T05:30:18;5.85;;;1.88;;
60964;SDS011;46834;51.100;6.886;2022-11-03T05:32:43;5.10;;;1.95;;
60964;SDS011;46834;51.100;6.886;2022-11-03T05:35:19;6.93;;;2.30;;
60964;SDS011;46834;51.100;6.886;2022-11-03T05:37:47;7.45;;;2.30;;
60964;SDS011;46834;51.100;6.886;2022-11-03T05:40:18;4.40;;;2.13;;
60964;SDS011;46834;51.100;6.886;2022-11-03T05:42:59;7.88;;;2.33;;
60964;SDS011;46834;51.100;6.886;2022-11-03T05:45:31;7.32;;;2.00;;
60964;SDS011;46834;51.100;6.886;2022-11-03T05:47:58;4.75;;;2.13;;
60964;SDS011;46834;51.100;6.886;2022-11-03T05:50:32;4.55;;;1.90;;
60964;SDS011;46834;51.100;6.886;2022-11-03T05:53:03;4.25;;;2.30;;
60964;SDS011;46834;51.100;6.886;2022-11-03T05:55:57;8.40;;;2.17;;
60964;SDS011;46834;51.100;6.886;2022-11-03T05:58:34;5.22;;;2.25;;
60964;SDS011;46834;51.100;6.886;2022-11-03T06:01:14;5.82;;;2.40;;
60964;SDS011;46834;51.100;6.886;2022-11-03T06:03:50;6.15;;;2.17;;
60964;SDS011;46834;51.100;6.886;2022-11-03T06:09:08;7.63;;;2.40;;
60964;SDS011;46834;51.100;6.886;2022-11-03T06:11:40;4.28;;;2.13;;
60964;SDS011;46834;51.100;6.886;2022-11-03T06:16:57;8.27;;;2.28;;
60964;SDS011;46834;51.100;6.886;2022-11-03T06:19:40;4.90;;;2.17;;
60964;SDS011;46834;51.100;6.886;2022-11-03T06:22:22;5.07;;;2.42;;
60964;SDS011;46834;51.100;6.886;2022-11-03T06:24:55;4.38;;;1.92;;
60964;SDS011;46834;51.100;6.886;2022-11-03T06:27:34;6.18;;;2.33;;
60964;SDS011;46834;51.100;6.886;2022-11-03T06:30:01;4.20;;;2.08;;
60964;SDS011;46834;51.100;6.886;2022-11-03T06:32:50;4.53;;;1.70;;
60964;SDS011;46834;51.100;6.886;2022-11-03T06:35:19;7.93;;;2.40;;
60964;SDS011;46834;51.100;6.886;2022-11-03T06:37:44;3.72;;;1.70;;
60964;SDS011;46834;51.100;6.886;2022-11-03T06:42:39;7.05;;;2.08;;
60964;SDS011;46834;51.100;6.886;2022-11-03T06:47:48;5.43;;;1.98;;
60964;SDS011;46834;51.100;6.886;2022-11-03T06:50:28;6.15;;;2.40;;
60964;SDS011;46834;51.100;6.886;2022-11-03T06:52:56;6.40;;;2.47;;
60964;SDS011;46834;51.100;6.886;2022-11-03T06:55:27;5.07;;;2.53;;
60964;SDS011;46834;51.100;6.886;2022-11-03T07:00:45;7.75;;;1.98;;
60964;SDS011;46834;51.100;6.886;2022-11-03T07:05:56;5.70;;;2.58;;
60964;SDS011;46834;51.100;6.886;2022-11-03T07:08:36;7.13;;;2.53;;
60964;SDS011;46834;51.100;6.886;2022-11-03T07:13:57;7.82;;;2.45;;
60964;SDS011;46834;51.100;6.886;2022-11-03T07:16:46;6.85;;;2.20;;
60964;SDS011;46834;51.100;6.886;2022-11-03T07:19:21;5.40;;;2.20;;
60964;SDS011;46834;51.100;6.886;2022-11-03T07:21:53;4.18;;;2.08;;
60964;SDS011;46834;51.100;6.886;2022-11-03T07:24:24;6.15;;;2.47;;
60964;SDS011;46834;51.100;6.886;2022-11-03T07:27:20;4.88;;;2.45;;
60964;SDS011;46834;51.100;6.886;2022-11-03T07:29:57;6.53;;;2.50;;
60964;SDS011;46834;51.100;6.886;2022-11-03T07:32:36;6.43;;;2.72;;
60964;SDS011;46834;51.100;6.886;2022-11-03T07:35:04;4.45;;;2.22;;
60964;SDS011;46834;51.100;6.886;2022-11-03T07:37:55;6.13;;;2.53;;
60964;SDS011;46834;51.100;6.886;2022-11-03T07:40:27;9.02;;;3.05;;
60964;SDS011;46834;51.100;6.886;2022-11-03T07:42:58;6.47;;;2.10;;
60964;SDS011;46834;51.100;6.886;2022-11-03T07:45:36;7.25;;;2.13;;
60964;SDS011;46834;51.100;6.886;2022-11-03T07:50:58;5.68;;;2.35;;
60964;SDS011;46834;51.100;6.886;2022-11-03T07:53:44;9.25;;;2.50;;
60964;SDS011;46834;51.100;6.886;2022-11-03T07:56:22;6.35;;;2.05;;
60964;SDS011;46834;51.100;6.886;2022-11-03T07:58:56;5.70;;;2.20;;
60964;SDS011;46834;51.100;6.886;2022-11-03T08:01:29;7.03;;;2.35;;
60964;SDS011;46834;51.100;6.886;2022-11-03T08:04:04;9.75;;;2.60;;
60964;SDS011;46834;51.100;6.886;2022-11-03T08:06:34;6.47;;;2.60;;
60964;SDS011;46834;51.100;6.886;2022-11-03T08:08:59;7.45;;;2.78;;
60964;SDS011;46834;51.100;6.886;2022-11-03T08:11:25;4.10;;;2.42;;
60964;SDS011;46834;51.100;6.886;2022-11-03T08:13:51;4.72;;;2.35;;
60964;SDS011;46834;51.100;6.886;2022-11-03T08:16:17;7.35;;;2.72;;
60964;SDS011;46834;51.100;6.886;2022-11-03T08:18:45;6.78;;;2.47;;
60964;SDS011;46834;51.100;6.886;2022-11-03T08:21:11;7.68;;;2.70;;
60964;SDS011;46834;51.100;6.886;2022-11-03T08:23:37;10.25;;;2.80;;
60964;SDS011;46834;51.100;6.886;2022-11-03T08:26:03;9.43;;;2.67;;
60964;SDS011;46834;51.100;6.886;2022-11-03T08:28:29;6.25;;;2.53;;
60964;SDS011;46834;51.100;6.886;2022-11-03T08:30:57;3.72;;;2.33;;
60964;SDS011;46834;51.100;6.886;2022-11-03T08:33:26;6.20;;;2.17;;
60964;SDS011;46834;51.100;6.886;2022-11-03T08:35:53;7.07;;;2.78;;
60964;SDS011;46834;51.100;6.886;2022-11-03T08:38:18;6.43;;;2.53;;
60964;SDS011;46834;51.100;6.886;2022-11-03T08:40:44;6.25;;;2.60;;
60964;SDS011;46834;51.100;6.886;2022-11-03T08:43:10;5.07;;;2.72;;
60964;SDS011;46834;51.100;6.886;2022-11-03T08:45:35;5.15;;;2.65;;
60964;SDS011;46834;51.100;6.886;2022-11-03T08:48:01;4.38;;;2.17;;
60964;SDS011;46834;51.100;6.886;2022-11-03T08:50:27;5.53;;;2.28;;
60964;SDS011;46834;51.100;6.886;2022-11-03T08:52:54;7.13;;;2.28;;
60964;SDS011;46834;51.100;6.886;2022-11-03T08:55:20;3.80;;;2.00;;
60964;SDS011;46834;51.100;6.886;2022-11-03T08:57:45;6.65;;;2.22;;
60964;SDS011;46834;51.100;6.886;2022-11-03T09:00:11;5.18;;;2.17;;
60964;SDS011;46834;51.100;6.886;2022-11-03T09:02:38;5.38;;;2.75;;
60964;SDS011;46834;51.100;6.886;2022-11-03T09:05:04;6.07;;;2.47;;
60964;SDS011;46834;51.100;6.886;2022-11-03T09:07:31;6.15;;;2.22;;
60964;SDS011;46834;51.100;6.886;2022-11-03T09:09:57;4.97;;;2.10;;
60964;SDS011;46834;51.100;6.886;2022-11-03T09:12:23;6.93;;;2.30;;
60964;SDS011;46834;51.100;6.886;2022-11-03T09:14:49;4.63;;;2.42;;
60964;SDS011;46834;51.100;6.886;2022-11-03T09:17:14;4.00;;;1.98;;
60964;SDS011;46834;51.100;6.886;2022-11-03T09:19:40;5.38;;;2.00;;
60964;SDS011;46834;51.100;6.886;2022-11-03T09:22:05;3.95;;;1.70;;
60964;SDS011;46834;51.100;6.886;2022-11-03T09:24:31;7.20;;;2.22;;
60964;SDS011;46834;51.100;6.886;2022-11-03T09:26:57;4.82;;;1.60;;
60964;SDS011;46834;51.100;6.886;2022-11-03T09:29:23;3.92;;;1.60;;
60964;SDS011;46834;51.100;6.886;2022-11-03T09:31:49;4.05;;;1.95;;
60964;SDS011;46834;51.100;6.886;2022-11-03T09:34:15;6.00;;;2.10;;
60964;SDS011;46834;51.100;6.886;2022-11-03T09:36:40;4.80;;;1.98;;
60964;SDS011;46834;51.100;6.886;2022-11-03T09:39:06;7.78;;;1.70;;
60964;SDS011;46834;51.100;6.886;2022-11-03T09:41:32;6.55;;;1.98;;
60964;SDS011;46834;51.100;6.886;2022-11-03T09:43:59;5.35;;;2.03;;
60964;SDS011;46834;51.100;6.886;2022-11-03T09:46:25;4.28;;;1.40;;
60964;SDS011;46834;51.100;6.886;2022-11-03T09:48:54;6.18;;;2.03;;
60964;SDS011;46834;51.100;6.886;2022-11-03T09:51:21;6.97;;;1.80;;
60964;SDS011;46834;51.100;6.886;2022-11-03T09:53:49;5.45;;;1.50;;
60964;SDS011;46834;51.100;6.886;2022-11-03T09:56:16;4.47;;;1.80;;
60964;SDS011;46834;51.100;6.886;2022-11-03T09:58:46;7.53;;;2.70;;
60964;SDS011;46834;51.100;6.886;2022-11-03T10:01:12;5.32;;;1.92;;
60964;SDS011;46834;51.100;6.886;2022-11-03T10:03:37;11.70;;;2.05;;
60964;SDS011;46834;51.100;6.886;2022-11-03T10:06:04;6.80;;;2.30;;
60964;SDS011;46834;51.100;6.886;2022-11-03T10:08:31;8.35;;;2.63;;
60964;SDS011;46834;51.100;6.886;2022-11-03T10:11:01;5.43;;;2.00;;
60964;SDS011;46834;51.100;6.886;2022-11-03T10:13:32;5.53;;;2.08;;
60964;SDS011;46834;51.100;6.886;2022-11-03T10:16:05;4.95;;;2.65;;
60964;SDS011;46834;51.100;6.886;2022-11-03T10:18:36;5.85;;;2.35;;
60964;SDS011;46834;51.100;6.886;2022-11-03T10:21:13;7.75;;;2.92;;
60964;SDS011;46834;51.100;6.886;2022-11-03T10:23:54;5.88;;;2.38;;
60964;SDS011;46834;51.100;6.886;2022-11-03T10:26:20;6.05;;;2.65;;
60964;SDS011;46834;51.100;6.886;2022-11-03T10:31:23;4.93;;;2.00;;
60964;SDS011;46834;51.100;6.886;2022-11-03T10:33:58;5.80;;;2.30;;
60964;SDS011;46834;51.100;6.886;2022-11-03T10:36:25;4.35;;;1.80;;
60964;SDS011;46834;51.100;6.886;2022-11-03T10:38:53;5.68;;;1.92;;
60964;SDS011;46834;51.100;6.886;2022-11-03T10:41:21;6.75;;;1.90;;
60964;SDS011;46834;51.100;6.886;2022-11-03T10:44:02;4.72;;;1.83;;
60964;SDS011;46834;51.100;6.886;2022-11-03T10:47:04;5.63;;;1.50;;
60964;SDS011;46834;51.100;6.886;2022-11-03T10:49:31;2.75;;;1.23;;
60964;SDS011;46834;51.100;6.886;2022-11-03T10:52:18;4.10;;;1.50;;
60964;SDS011;46834;51.100;6.886;2022-11-03T10:54:48;6.28;;;1.70;;
60964;SDS011;46834;51.100;6.886;2022-11-03T10:57:16;4.85;;;1.77;;
60964;SDS011;46834;51.100;6.886;2022-11-03T10:59:44;4.35;;;1.85;;
60964;SDS011;46834;51.100;6.886;2022-11-03T11:02:20;4.07;;;1.70;;
60964;SDS011;46834;51.100;6.886;2022-11-03T11:04:53;8.05;;;1.67;;
60964;SDS011;46834;51.100;6.886;2022-11-03T11:07:25;5.03;;;1.42;;
60964;SDS011;46834;51.100;6.886;2022-11-03T11:10:07;6.05;;;1.50;;
60964;SDS011;46834;51.100;6.886;2022-11-03T11:20:54;2.83;;;1.30;;
60964;SDS011;46834;51.100;6.886;2022-11-03T11:28:37;5.88;;;1.13;;
60964;SDS011;46834;51.100;6.886;2022-11-03T11:34:37;3.15;;;1.40;;
60964;SDS011;46834;51.100;6.886;2022-11-03T11:42:25;3.22;;;1.52;;
60964;SDS011;46834;51.100;6.886;2022-11-03T11:44:49;2.95;;;1.35;;
60964;SDS011;46834;51.100;6.886;2022-11-03T11:47:25;5.85;;;1.30;;
60964;SDS011;46834;51.100;6.886;2022-11-03T11:52:47;5.15;;;1.63;;
60964;SDS011;46834;51.100;6.886;2022-11-03T11:55:27;5.28;;;1.33;;
60964;SDS011;46834;51.100;6.886;2022-11-03T11:58:57;6.15;;;1.50;;
60964;SDS011;46834;51.100;6.886;2022-11-03T12:01:25;3.38;;;1.58;;
60964;SDS011;46834;51.100;6.886;2022-11-03T12:04:00;3.30;;;1.70;;
60964;SDS011;46834;51.100;6.886;2022-11-03T12:06:49;2.20;;;1.23;;
60964;SDS011;46834;51.100;6.886;2022-11-03T12:09:16;7.95;;;1.60;;
60964;SDS011;46834;51.100;6.886;2022-11-03T12:11:48;3.38;;;1.48;;
60964;SDS011;46834;51.100;6.886;2022-11-03T12:19:46;3.35;;;1.58;;
60964;SDS011;46834;51.100;6.886;2022-11-03T12:29:50;4.72;;;1.60;;
60964;SDS011;46834;51.100;6.886;2022-11-03T12:32:17;4.45;;;1.48;;
60964;SDS011;46834;51.100;6.886;2022-11-03T12:34:43;2.60;;;1.20;;
60964;SDS011;46834;51.100;6.886;2022-11-03T12:37:09;6.15;;;1.90;;
60964;SDS011;46834;51.100;6.886;2022-11-03T12:39:35;3.38;;;1.52;;
60964;SDS011;46834;51.100;6.886;2022-11-03T12:42:02;2.40;;;1.42;;
60964;SDS011;46834;51.100;6.886;2022-11-03T12:44:28;3.15;;;1.45;;
60964;SDS011;46834;51.100;6.886;2022-11-03T12:46:54;4.57;;;1.70;;
60964;SDS011;46834;51.100;6.886;2022-11-03T12:49:19;5.22;;;1.33;;
60964;SDS011;46834;51.100;6.886;2022-11-03T12:51:45;5.47;;;1.65;;
60964;SDS011;46834;51.100;6.886;2022-11-03T12:54:11;3.58;;;1.30;;
60964;SDS011;46834;51.100;6.886;2022-11-03T12:56:37;4.22;;;1.60;;
60964;SDS011;46834;51.100;6.886;2022-11-03T12:59:03;4.38;;;1.70;;
60964;SDS011;46834;51.100;6.886;2022-11-03T13:01:28;5.50;;;1.30;;
60964;SDS011;46834;51.100;6.886;2022-11-03T13:03:54;4.22;;;1.92;;
60964;SDS011;46834;51.100;6.886;2022-11-03T13:06:20;4.68;;;1.48;;
60964;SDS011;46834;51.100;6.886;2022-11-03T13:08:45;4.43;;;1.45;;
60964;SDS011;46834;51.100;6.886;2022-11-03T13:11:13;5.07;;;1.67;;
60964;SDS011;46834;51.100;6.886;2022-11-03T13:13:57;3.22;;;1.50;;
60964;SDS011;46834;51.100;6.886;2022-11-03T13:16:23;3.40;;;1.65;;
60964;SDS011;46834;51.100;6.886;2022-11-03T13:18:48;3.88;;;1.95;;
60964;SDS011;46834;51.100;6.886;2022-11-03T13:21:14;5.35;;;1.92;;
60964;SDS011;46834;51.100;6.886;2022-11-03T13:23:40;3.92;;;1.52;;
60964;SDS011;46834;51.100;6.886;2022-11-03T13:26:06;2.25;;;1.65;;
60964;SDS011;46834;51.100;6.886;2022-11-03T13:28:32;3.13;;;2.10;;
60964;SDS011;46834;51.100;6.886;2022-11-03T13:30:57;4.35;;;1.80;;
60964;SDS011;46834;51.100;6.886;2022-11-03T13:33:23;3.97;;;1.70;;
60964;SDS011;46834;51.100;6.886;2022-11-03T13:35:49;7.78;;;1.90;;
60964;SDS011;46834;51.100;6.886;2022-11-03T13:38:14;3.72;;;1.75;;
60964;SDS011;46834;51.100;6.886;2022-11-03T13:40:40;3.78;;;1.80;;
60964;SDS011;46834;51.100;6.886;2022-11-03T13:43:05;5.38;;;1.85;;
60964;SDS011;46834;51.100;6.886;2022-11-03T13:45:31;4.75;;;1.60;;
60964;SDS011;46834;51.100;6.886;2022-11-03T13:47:59;4.82;;;1.88;;
60964;SDS011;46834;51.100;6.886;2022-11-03T13:50:25;2.80;;;1.67;;
60964;SDS011;46834;51.100;6.886;2022-11-03T13:52:50;7.93;;;1.77;;
60964;SDS011;46834;51.100;6.886;2022-11-03T13:55:16;2.42;;;1.52;;
60964;SDS011;46834;51.100;6.886;2022-11-03T13:57:42;3.88;;;1.60;;
60964;SDS011;46834;51.100;6.886;2022-11-03T14:00:09;6.68;;;1.70;;
60964;SDS011;46834;51.100;6.886;2022-11-03T14:02:38;2.92;;;1.50;;
60964;SDS011;46834;51.100;6.886;2022-11-03T14:05:04;3.20;;;1.60;;
60964;SDS011;46834;51.100;6.886;2022-11-03T14:07:31;5.50;;;1.20;;
60964;SDS011;46834;51.100;6.886;2022-11-03T14:09:57;3.28;;;1.40;;
60964;SDS011;46834;51.100;6.886;2022-11-03T14:12:23;2.42;;;1.48;;
60964;SDS011;46834;51.100;6.886;2022-11-03T14:14:58;3.30;;;1.58;;
60964;SDS011;46834;51.100;6.886;2022-11-03T14:17:30;3.53;;;1.42;;
60964;SDS011;46834;51.100;6.886;2022-11-03T14:19:56;4.45;;;1.50;;
60964;SDS011;46834;51.100;6.886;2022-11-03T14:22:22;2.47;;;1.52;;
60964;SDS011;46834;51.100;6.886;2022-11-03T14:24:48;4.18;;;1.70;;
60964;SDS011;46834;51.100;6.886;2022-11-03T14:27:16;4.05;;;1.77;;
60964;SDS011;46834;51.100;6.886;2022-11-03T14:29:43;5.65;;;2.00;;
60964;SDS011;46834;51.100;6.886;2022-11-03T14:32:09;3.40;;;1.42;;
60964;SDS011;46834;51.100;6.886;2022-11-03T14:34:35;5.18;;;2.03;;
60964;SDS011;46834;51.100;6.886;2022-11-03T14:37:02;6.43;;;1.58;;
60964;SDS011;46834;51.100;6.886;2022-11-03T14:39:35;3.72;;;1.60;;
60964;SDS011;46834;51.100;6.886;2022-11-03T14:42:01;3.80;;;1.48;;
60964;SDS011;46834;51.100;6.886;2022-11-03T14:44:30;2.60;;;1.65;;
60964;SDS011;46834;51.100;6.886;2022-11-03T14:47:01;4.05;;;1.63;;
60964;SDS011;46834;51.100;6.886;2022-11-03T14:49:28;2.80;;;1.40;;
60964;SDS011;46834;51.100;6.886;2022-11-03T14:51:56;2.65;;;1.52;;
60964;SDS011;46834;51.100;6.886;2022-11-03T14:54:23;5.80;;;1.92;;
60964;SDS011;46834;51.100;6.886;2022-11-03T14:56:50;3.47;;;1.85;;
60964;SDS011;46834;51.100;6.886;2022-11-03T14:59:16;5.03;;;2.00;;
60964;SDS011;46834;51.100;6.886;2022-11-03T15:01:43;3.60;;;1.83;;
60964;SDS011;46834;51.100;6.886;2022-11-03T15:04:09;4.82;;;2.05;;
60964;SDS011;46834;51.100;6.886;2022-11-03T15:06:35;3.65;;;2.05;;
60964;SDS011;46834;51.100;6.886;2022-11-03T15:09:01;5.50;;;2.17;;
60964;SDS011;46834;51.100;6.886;2022-11-03T15:11:28;6.72;;;2.40;;
60964;SDS011;46834;51.100;6.886;2022-11-03T15:13:54;5.47;;;2.35;;
60964;SDS011;46834;51.100;6.886;2022-11-03T15:16:20;3.67;;;1.70;;
60964;SDS011;46834;51.100;6.886;2022-11-03T15:18:47;6.63;;;2.00;;
60964;SDS011;46834;51.100;6.886;2022-11-03T15:21:13;4.75;;;2.13;;
60964;SDS011;46834;51.100;6.886;2022-11-03T15:23:38;3.40;;;1.77;;
60964;SDS011;46834;51.100;6.886;2022-11-03T15:26:04;3.33;;;1.90;;
60964;SDS011;46834;51.100;6.886;2022-11-03T15:28:30;3.30;;;1.67;;
60964;SDS011;46834;51.100;6.886;2022-11-03T15:30:56;3.42;;;1.80;;
60964;SDS011;46834;51.100;6.886;2022-11-03T15:33:28;3.55;;;1.60;;
60964;SDS011;46834;51.100;6.886;2022-11-03T15:35:53;5.68;;;1.88;;
60964;SDS011;46834;51.100;6.886;2022-11-03T15:38:19;3.95;;;1.65;;
60964;SDS011;46834;51.100;6.886;2022-11-03T15:40:45;4.13;;;1.98;;
60964;SDS011;46834;51.100;6.886;2022-11-03T15:43:10;4.18;;;1.88;;
60964;SDS011;46834;51.100;6.886;2022-11-03T15:45:36;3.05;;;1.88;;
60964;SDS011;46834;51.100;6.886;2022-11-03T15:48:02;3.75;;;1.90;;
60964;SDS011;46834;51.100;6.886;2022-11-03T15:50:28;2.55;;;1.75;;
60964;SDS011;46834;51.100;6.886;2022-11-03T15:52:54;4.47;;;1.80;;
60964;SDS011;46834;51.100;6.886;2022-11-03T15:55:20;4.65;;;1.83;;
60964;SDS011;46834;51.100;6.886;2022-11-03T15:57:47;3.72;;;1.65;;
60964;SDS011;46834;51.100;6.886;2022-11-03T16:00:13;4.78;;;1.85;;
60964;SDS011;46834;51.100;6.886;2022-11-03T16:02:39;2.60;;;1.90;;
60964;SDS011;46834;51.100;6.886;2022-11-03T16:05:06;4.10;;;2.10;;
60964;SDS011;46834;51.100;6.886;2022-11-03T16:07:33;3.33;;;1.70;;
60964;SDS011;46834;51.100;6.886;2022-11-03T16:09:58;4.05;;;2.00;;
60964;SDS011;46834;51.100;6.886;2022-11-03T16:12:25;4.50;;;2.03;;
60964;SDS011;46834;51.100;6.886;2022-11-03T16:14:51;7.10;;;2.50;;
60964;SDS011;46834;51.100;6.886;2022-11-03T16:17:17;4.53;;;2.00;;
60964;SDS011;46834;51.100;6.886;2022-11-03T16:19:46;5.28;;;2.10;;
60964;SDS011;46834;51.100;6.886;2022-11-03T16:22:11;5.05;;;1.98;;
60964;SDS011;46834;51.100;6.886;2022-11-03T16:24:38;1.92;;;1.65;;
60964;SDS011;46834;51.100;6.886;2022-11-03T16:27:05;4.95;;;2.05;;
60964;SDS011;46834;51.100;6.886;2022-11-03T16:29:31;5.90;;;2.20;;
60964;SDS011;46834;51.100;6.886;2022-11-03T16:31:56;4.95;;;2.20;;
60964;SDS011;46834;51.100;6.886;2022-11-03T16:34:22;4.53;;;2.38;;
60964;SDS011;46834;51.100;6.886;2022-11-03T16:36:48;4.63;;;2.13;;
60964;SDS011;46834;51.100;6.886;2022-11-03T16:39:14;5.35;;;2.15;;
60964;SDS011;46834;51.100;6.886;2022-11-03T16:41:39;4.18;;;2.10;;
60964;SDS011;46834;51.100;6.886;2022-11-03T16:44:05;4.85;;;2.28;;